Fort Severn Airport
CYER : now visible

Airfield :











YOU CAN JOIN US ON...

 
LOGIN :

Register | Disclaimer

   EN    FR    IT 

 









Legend :    VFR   Marginal VFR   IFR   Intensive IFR   Very Intensive IFR
Visi :
Ceiling :
>= 8 km
>= 3000ft
5 to 8 km
1000 to 3000 ft
1500m to 5 km
500 to 1000 ft
800 to 1500m
200 to 500 ft
< 800m
< 200 ft
Symbols :   Thunderstorms  Fog  Heavy snow  Heavy precipitations  Wind > 20 kt






- Airport Elevation : 48 ft
- IATA code : YER


CYER - Fort Severn

CURRENT METAR :
  • 271600Z AUTO 26012G20KT 9SM -SN OVC040 M11/M14 A2964 RMK SLP042

EXPIRED METARs :
  • 271500Z AUTO 27014G22KT 9SM -SN OVC034 M12/M14 A2963 RMK SLP037
  • 271400Z AUTO 27013G23KT 9SM -SN OVC034 M11/M14 A2962 RMK SLP033

TAF TAF CYER
Valid from the 27 at 14:00 until the 27 at 20:00 UTC


271340Z 2714/2720 28015G25KT P6SM -SN SCT020 OVC050
TEMPO 2714/2716 5SM -SN BKN020 OVC050
FM271600 27015G25KT P6SM BKN025
TEMPO 2716/2720 BKN020 RMK FCST BASED ON AUTO OBS. NXT FCST WILL BE ISSUED AT 280945Z
CZWG FIR / North America



MET'MAP, your aeronautical weather chart ! - Copyright ORBIFLY December 2007 - Disclaimer

ORBIFLY MET'MAP TEAM :

Programming & Development : Alexandra Zaïnal
Concept & original design : Baudouin d'Aumeries
Assistance for programming : Marc-Olivier Méhu
Technical & hardware support : Manuel Goepfert

Contact : metmap@orbifly.com




SOURCES & CREDITS :

   NOAA       Earth
Advisory